Time;durP1;ratioP1;P1;durP2;ratioP2;P2;SDS_P1;SDS_P2;PMS_P1;PMS_P2;Temp;Humidity;BMP_temperature;BMP_pressure;BME280_temperature;BME280_humidity;BME280_pressure;Samples;Min_cycle;Max_cycle;Signal;HPM_P1;HPM_P2
2021/04/25 00:00:31;;;;;;;5.45;1.58;;;;;;;;;;5055901;28;20483;-79
2021/04/25 00:02:56;;;;;;;7.53;2.05;;;;;;;;;;5054457;28;20025;-79
2021/04/25 00:05:21;;;;;;;9.20;2.10;;;;;;;;;;5054597;28;20036;-79
2021/04/25 00:07:46;;;;;;;6.57;2.15;;;;;;;;;;5054367;28;20112;-79
2021/04/25 00:10:13;;;;;;;6.05;2.30;;;;;;;;;;5056110;28;20143;-79
2021/04/25 00:12:42;;;;;;;5.32;2.13;;;;;;;;;;5055563;28;20017;-79
2021/04/25 00:15:12;;;;;;;10.40;2.72;;;;;;;;;;5035953;28;20469;-79
2021/04/25 00:17:37;;;;;;;5.88;2.30;;;;;;;;;;5048815;28;20025;-79
2021/04/25 00:20:03;;;;;;;9.35;3.13;;;;;;;;;;5055372;28;20082;-79
2021/04/25 00:22:28;;;;;;;7.47;3.40;;;;;;;;;;5055612;28;20381;-79
2021/04/25 00:24:54;;;;;;;6.88;2.63;;;;;;;;;;5055286;28;20025;-79
2021/04/25 00:27:19;;;;;;;10.32;2.78;;;;;;;;;;5055531;28;20078;-79
2021/04/25 00:29:44;;;;;;;10.35;3.10;;;;;;;;;;5055128;28;20021;-79
2021/04/25 00:32:09;;;;;;;9.63;3.08;;;;;;;;;;5055149;28;20100;-79
2021/04/25 00:34:34;;;;;;;7.50;2.88;;;;;;;;;;5055305;28;20017;-79
2021/04/25 00:36:59;;;;;;;11.45;3.67;;;;;;;;;;5055425;28;20467;-79
2021/04/25 00:39:25;;;;;;;8.13;3.20;;;;;;;;;;5055249;28;20051;-79
2021/04/25 00:41:50;;;;;;;10.07;3.50;;;;;;;;;;5055138;28;20440;-79
2021/04/25 00:44:15;;;;;;;10.35;3.53;;;;;;;;;;5055049;28;20021;-79
2021/04/25 00:46:41;;;;;;;8.52;3.28;;;;;;;;;;5053812;28;20025;-79
2021/04/25 00:49:06;;;;;;;9.85;3.20;;;;;;;;;;5054812;28;20029;-79
2021/04/25 00:51:31;;;;;;;9.77;3.08;;;;;;;;;;5054984;28;20063;-79
2021/04/25 00:53:57;;;;;;;7.82;2.63;;;;;;;;;;5054750;28;20032;-79
2021/04/25 00:56:22;;;;;;;7.93;3.08;;;;;;;;;;5054887;28;20021;-79
2021/04/25 00:58:48;;;;;;;8.20;3.08;;;;;;;;;;5054805;28;20105;-79
2021/04/25 01:01:13;;;;;;;6.22;2.70;;;;;;;;;;5050758;28;20025;-79
2021/04/25 01:03:38;;;;;;;9.85;3.10;;;;;;;;;;5044691;28;20487;-79
2021/04/25 01:06:04;;;;;;;10.45;3.40;;;;;;;;;;5053278;28;20090;-79
2021/04/25 01:08:29;;;;;;;10.68;3.08;;;;;;;;;;5054206;28;20093;-79
2021/04/25 01:10:54;;;;;;;15.43;3.72;;;;;;;;;;5053083;28;20035;-79
2021/04/25 01:13:19;;;;;;;11.52;3.72;;;;;;;;;;5052982;28;20388;-79
2021/04/25 01:15:45;;;;;;;11.27;3.80;;;;;;;;;;5054603;28;20040;-79
2021/04/25 01:18:10;;;;;;;12.85;4.05;;;;;;;;;;5054241;28;20012;-79
2021/04/25 01:20:36;;;;;;;13.63;3.63;;;;;;;;;;5054376;28;20024;-79
2021/04/25 01:23:01;;;;;;;10.00;3.78;;;;;;;;;;5054148;28;20467;-79
2021/04/25 01:25:27;;;;;;;15.25;3.80;;;;;;;;;;5053146;28;20032;-79
2021/04/25 01:27:52;;;;;;;15.82;4.63;;;;;;;;;;5054275;28;20029;-79
2021/04/25 01:30:20;;;;;;;8.02;4.20;;;;;;;;;;5052560;28;20021;-79
2021/04/25 01:32:45;;;;;;;9.48;4.45;;;;;;;;;;5052896;28;20024;-79
2021/04/25 01:35:14;;;;;;;16.40;4.03;;;;;;;;;;5054234;28;20013;-79
2021/04/25 01:37:39;;;;;;;12.88;4.80;;;;;;;;;;5052979;28;20017;-79
2021/04/25 01:40:05;;;;;;;9.73;4.25;;;;;;;;;;5053838;28;20021;-79
2021/04/25 01:42:30;;;;;;;9.57;4.50;;;;;;;;;;5053839;28;20029;-79
2021/04/25 01:44:56;;;;;;;9.32;3.60;;;;;;;;;;5052710;28;20017;-79
2021/04/25 01:47:21;;;;;;;10.13;3.63;;;;;;;;;;5053728;28;20033;-79
2021/04/25 01:49:46;;;;;;;10.63;4.07;;;;;;;;;;5052517;28;20021;-79
2021/04/25 01:52:11;;;;;;;10.93;4.22;;;;;;;;;;5053803;28;20021;-79
2021/04/25 01:54:36;;;;;;;8.95;3.78;;;;;;;;;;5052355;28;20009;-79
2021/04/25 01:57:02;;;;;;;11.00;5.10;;;;;;;;;;5052820;28;20037;-79
2021/04/25 01:59:27;;;;;;;7.95;4.35;;;;;;;;;;5053572;28;20029;-79
2021/04/25 02:01:52;;;;;;;10.57;4.80;;;;;;;;;;5053628;28;20036;-79
2021/04/25 02:04:17;;;;;;;11.02;4.70;;;;;;;;;;5053493;28;20025;-79
2021/04/25 02:06:43;;;;;;;9.27;4.03;;;;;;;;;;5053471;28;20032;-79
2021/04/25 02:09:09;;;;;;;13.85;5.70;;;;;;;;;;5053573;28;20111;-79
2021/04/25 02:11:34;;;;;;;13.15;4.72;;;;;;;;;;5052697;28;20106;-79
2021/04/25 02:14:01;;;;;;;9.57;4.43;;;;;;;;;;5052072;28;20059;-79
2021/04/25 02:16:26;;;;;;;11.98;4.80;;;;;;;;;;5053355;28;20460;-79
2021/04/25 02:18:52;;;;;;;16.23;5.32;;;;;;;;;;5053412;28;20032;-79
2021/04/25 02:21:17;;;;;;;14.45;5.43;;;;;;;;;;5053510;28;20104;-79
2021/04/25 02:23:42;;;;;;;10.25;4.43;;;;;;;;;;5053364;28;20437;-79
2021/04/25 02:26:07;;;;;;;11.18;5.13;;;;;;;;;;5052088;28;20017;-79
2021/04/25 02:28:32;;;;;;;14.75;5.72;;;;;;;;;;5053159;28;20453;-79
2021/04/25 02:30:58;;;;;;;14.70;5.35;;;;;;;;;;5053376;28;20083;-79
2021/04/25 02:33:23;;;;;;;12.68;4.78;;;;;;;;;;5052053;28;20070;-79
2021/04/25 02:35:48;;;;;;;13.93;5.35;;;;;;;;;;5068601;28;20017;-79
2021/04/25 02:38:14;;;;;;;15.10;5.03;;;;;;;;;;5052022;28;20017;-79
2021/04/25 02:40:40;;;;;;;16.25;4.50;;;;;;;;;;5051753;28;20111;-79
2021/04/25 02:43:05;;;;;;;16.17;5.40;;;;;;;;;;5053337;28;20095;-79
2021/04/25 02:45:31;;;;;;;13.20;5.50;;;;;;;;;;5044980;28;20017;-79
2021/04/25 02:47:57;;;;;;;14.37;5.30;;;;;;;;;;5053070;28;20358;-79
2021/04/25 02:50:25;;;;;;;13.23;4.78;;;;;;;;;;5051801;28;20024;-79
2021/04/25 02:52:50;;;;;;;15.57;4.65;;;;;;;;;;5052975;28;20388;-79
2021/04/25 02:55:16;;;;;;;10.70;4.32;;;;;;;;;;5051819;28;20071;-79
2021/04/25 02:57:41;;;;;;;15.57;5.22;;;;;;;;;;5052762;28;20460;-79
2021/04/25 03:00:08;;;;;;;12.48;5.45;;;;;;;;;;5053112;28;20024;-79
2021/04/25 03:02:33;;;;;;;14.02;4.95;;;;;;;;;;5051488;28;20041;-79
2021/04/25 03:04:58;;;;;;;13.02;5.85;;;;;;;;;;5052793;28;20028;-79
2021/04/25 03:07:23;;;;;;;14.53;5.50;;;;;;;;;;5052949;28;20048;-79
2021/04/25 03:09:48;;;;;;;17.50;5.67;;;;;;;;;;5052678;28;20082;-79
2021/04/25 03:12:14;;;;;;;12.90;5.50;;;;;;;;;;5051598;28;20389;-79
2021/04/25 03:14:39;;;;;;;13.27;6.57;;;;;;;;;;5051450;28;20072;-79
2021/04/25 03:17:04;;;;;;;16.90;6.57;;;;;;;;;;5052860;28;20384;-79
2021/04/25 03:19:29;;;;;;;15.73;6.53;;;;;;;;;;5053003;28;20017;-79
2021/04/25 03:21:55;;;;;;;16.80;6.37;;;;;;;;;;5053662;28;20017;-79
2021/04/25 03:24:20;;;;;;;15.13;5.70;;;;;;;;;;5056621;28;20057;-79
2021/04/25 03:26:46;;;;;;;20.00;6.17;;;;;;;;;;5056438;28;20064;-79
2021/04/25 03:29:11;;;;;;;15.33;5.53;;;;;;;;;;5056465;28;20032;-78
2021/04/25 03:31:36;;;;;;;14.70;5.67;;;;;;;;;;5056519;28;20023;-79
2021/04/25 03:34:01;;;;;;;15.13;5.77;;;;;;;;;;5056246;28;20023;-78
2021/04/25 03:36:27;;;;;;;14.30;6.77;;;;;;;;;;5056409;28;20017;-79
2021/04/25 03:38:52;;;;;;;14.27;6.07;;;;;;;;;;5056177;28;20016;-78
2021/04/25 03:41:17;;;;;;;15.20;6.13;;;;;;;;;;5055009;28;20033;-79
2021/04/25 03:43:42;;;;;;;12.53;5.67;;;;;;;;;;5054742;28;20036;-79
2021/04/25 03:46:07;;;;;;;15.47;6.40;;;;;;;;;;5054838;28;20028;-79
2021/04/25 03:48:33;;;;;;;18.57;7.07;;;;;;;;;;5054862;28;20025;-78
2021/04/25 03:50:58;;;;;;;17.97;6.60;;;;;;;;;;5055917;28;20370;-79
2021/04/25 03:53:23;;;;;;;23.80;6.30;;;;;;;;;;5056058;28;20013;-78
2021/04/25 03:55:49;;;;;;;16.30;5.70;;;;;;;;;;5055861;28;20021;-79
2021/04/25 03:58:14;;;;;;;19.37;5.63;;;;;;;;;;5055988;28;20017;-80
2021/04/25 04:00:39;;;;;;;19.90;6.07;;;;;;;;;;5055872;28;20100;-79
2021/04/25 04:03:04;;;;;;;15.77;5.73;;;;;;;;;;5055724;28;20013;-79
2021/04/25 04:05:29;;;;;;;15.67;6.07;;;;;;;;;;5054636;28;20021;-79
2021/04/25 04:07:55;;;;;;;16.07;6.13;;;;;;;;;;5055604;28;20019;-79
2021/04/25 04:10:20;;;;;;;16.23;5.87;;;;;;;;;;5055619;28;20078;-79
2021/04/25 04:12:45;;;;;;;14.50;6.13;;;;;;;;;;5055471;28;20013;-78
2021/04/25 04:15:11;;;;;;;16.83;6.17;;;;;;;;;;5054452;28;20492;-79
2021/04/25 04:17:36;;;;;;;14.97;5.47;;;;;;;;;;5054388;28;20578;-78
2021/04/25 04:20:02;;;;;;;15.77;6.00;;;;;;;;;;5054131;28;20021;-79
2021/04/25 04:22:27;;;;;;;16.57;6.67;;;;;;;;;;5055989;28;20020;-79
2021/04/25 04:24:52;;;;;;;11.23;5.30;;;;;;;;;;5055386;28;20017;-79
2021/04/25 04:27:18;;;;;;;19.67;5.67;;;;;;;;;;5055551;28;20104;-78
2021/04/25 04:29:43;;;;;;;16.40;5.53;;;;;;;;;;5055169;28;20060;-79
2021/04/25 04:32:08;;;;;;;17.10;6.40;;;;;;;;;;5054074;28;20012;-78
2021/04/25 04:34:33;;;;;;;14.30;5.90;;;;;;;;;;5054649;28;20017;-79
2021/04/25 04:36:59;;;;;;;12.63;5.33;;;;;;;;;;5053714;28;20020;-78
2021/04/25 04:39:25;;;;;;;14.90;5.87;;;;;;;;;;5055217;28;20100;-79
2021/04/25 04:41:50;;;;;;;17.83;6.73;;;;;;;;;;5053752;28;20017;-79
2021/04/25 04:44:16;;;;;;;14.80;5.80;;;;;;;;;;5055042;28;20074;-78
2021/04/25 04:46:41;;;;;;;14.07;5.97;;;;;;;;;;5054918;28;20492;-79
2021/04/25 04:49:06;;;;;;;15.83;5.90;;;;;;;;;;5053648;28;20027;-79
2021/04/25 04:51:31;;;;;;;19.70;6.07;;;;;;;;;;5054950;28;20055;-78
2021/04/25 04:53:56;;;;;;;16.50;6.17;;;;;;;;;;5054647;28;20013;-79
2021/04/25 04:56:22;;;;;;;13.80;6.17;;;;;;;;;;5053611;28;20131;-79
2021/04/25 04:58:47;;;;;;;16.17;6.30;;;;;;;;;;5054837;28;20066;-78
2021/04/25 05:01:12;;;;;;;17.07;6.00;;;;;;;;;;5054643;28;20013;-79
2021/04/25 05:03:37;;;;;;;22.67;6.03;;;;;;;;;;5054846;28;20075;-78
2021/04/25 05:06:03;;;;;;;18.30;5.87;;;;;;;;;;5054574;28;20048;-78
2021/04/25 05:08:28;;;;;;;16.10;5.83;;;;;;;;;;5053340;28;20021;-79
2021/04/25 05:10:53;;;;;;;16.20;5.33;;;;;;;;;;5069808;28;20021;-79
2021/04/25 05:13:18;;;;;;;16.97;5.47;;;;;;;;;;5053204;28;20051;-79
2021/04/25 05:15:43;;;;;;;10.73;4.33;;;;;;;;;;5054478;28;20436;-79
2021/04/25 05:18:09;;;;;;;9.30;3.97;;;;;;;;;;5054322;28;20017;-79
2021/04/25 05:20:34;;;;;;;14.10;4.90;;;;;;;;;;5054427;28;20021;-79
2021/04/25 05:22:59;;;;;;;12.30;4.83;;;;;;;;;;5052925;28;20021;-79
2021/04/25 05:25:25;;;;;;;16.53;6.10;;;;;;;;;;5054527;28;20070;-79
2021/04/25 05:27:50;;;;;;;12.60;5.07;;;;;;;;;;5054364;28;20025;-79
2021/04/25 05:30:15;;;;;;;13.43;4.97;;;;;;;;;;5052725;28;20017;-79
2021/04/25 05:32:41;;;;;;;15.40;4.87;;;;;;;;;;5054487;28;20033;-78
2021/04/25 05:35:07;;;;;;;13.47;5.53;;;;;;;;;;5054001;28;20048;-79
2021/04/25 05:37:32;;;;;;;14.93;5.93;;;;;;;;;;5054031;28;20370;-79
2021/04/25 05:39:57;;;;;;;11.63;5.50;;;;;;;;;;5052676;28;20025;-78
2021/04/25 05:42:22;;;;;;;12.43;5.30;;;;;;;;;;5054163;28;20053;-79
2021/04/25 05:44:47;;;;;;;14.50;5.43;;;;;;;;;;5053459;28;20473;-79
2021/04/25 05:47:13;;;;;;;14.30;6.10;;;;;;;;;;5052029;28;20020;-78
2021/04/25 05:49:38;;;;;;;14.97;5.77;;;;;;;;;;5053861;28;20111;-79
2021/04/25 05:52:03;;;;;;;8.53;4.23;;;;;;;;;;5053916;28;20048;-79
2021/04/25 05:54:28;;;;;;;11.00;4.50;;;;;;;;;;5053712;28;20040;-79
2021/04/25 05:56:54;;;;;;;15.37;4.17;;;;;;;;;;5053762;28;20437;-79
2021/04/25 05:59:19;;;;;;;14.30;4.50;;;;;;;;;;5052248;28;20020;-79
2021/04/25 06:01:44;;;;;;;16.40;5.10;;;;;;;;;;5052424;28;20063;-79
2021/04/25 06:04:09;;;;;;;12.33;4.73;;;;;;;;;;5052176;28;20021;-79
2021/04/25 06:06:34;;;;;;;14.33;3.57;;;;;;;;;;5052426;28;20101;-79
2021/04/25 06:09:00;;;;;;;11.65;4.38;;;;;;;;;;5053562;28;20112;-79
2021/04/25 06:11:25;;;;;;;12.48;4.20;;;;;;;;;;5053795;28;20013;-79
2021/04/25 06:13:51;;;;;;;10.43;4.20;;;;;;;;;;5053476;28;20032;-79
2021/04/25 06:16:16;;;;;;;11.50;4.28;;;;;;;;;;5051958;28;20013;-79
2021/04/25 06:18:41;;;;;;;11.15;3.75;;;;;;;;;;5052231;28;20175;-79
2021/04/25 06:21:06;;;;;;;8.18;3.17;;;;;;;;;;5052005;28;20028;-79
2021/04/25 06:23:32;;;;;;;15.32;4.47;;;;;;;;;;5052150;28;20044;-79
2021/04/25 06:25:57;;;;;;;9.50;3.80;;;;;;;;;;5068808;28;20036;-79
2021/04/25 06:28:22;;;;;;;14.43;4.18;;;;;;;;;;5053096;28;20069;-79
2021/04/25 06:30:47;;;;;;;9.27;3.90;;;;;;;;;;5053320;28;20017;-79
2021/04/25 06:33:13;;;;;;;12.88;4.57;;;;;;;;;;5051850;28;20387;-79
2021/04/25 06:35:38;;;;;;;12.85;3.90;;;;;;;;;;5051876;28;20369;-79
2021/04/25 06:38:04;;;;;;;9.48;4.70;;;;;;;;;;5053363;28;20404;-79
2021/04/25 06:40:29;;;;;;;10.45;4.18;;;;;;;;;;5052919;28;20021;-79
2021/04/25 06:42:54;;;;;;;10.05;4.10;;;;;;;;;;5053213;28;20075;-79
2021/04/25 06:45:21;;;;;;;10.50;4.00;;;;;;;;;;5052929;28;20020;-79
2021/04/25 06:47:47;;;;;;;10.25;3.38;;;;;;;;;;5051802;28;20392;-79
2021/04/25 06:50:13;;;;;;;10.57;2.92;;;;;;;;;;5052778;28;20021;-79
2021/04/25 06:52:40;;;;;;;9.60;3.08;;;;;;;;;;5052807;28;20017;-79
2021/04/25 06:55:05;;;;;;;7.82;2.88;;;;;;;;;;5052999;28;20017;-79
2021/04/25 06:57:30;;;;;;;7.60;2.53;;;;;;;;;;5054851;28;20017;-79
2021/04/25 06:59:55;;;;;;;7.68;2.83;;;;;;;;;;5057012;28;20021;-79
2021/04/25 07:02:21;;;;;;;12.15;3.58;;;;;;;;;;5056953;28;20035;-79
2021/04/25 07:04:46;;;;;;;7.13;3.40;;;;;;;;;;5057010;28;20519;-79
2021/04/25 07:07:12;;;;;;;7.38;2.85;;;;;;;;;;5055498;28;20458;-79
2021/04/25 07:09:38;;;;;;;10.00;3.72;;;;;;;;;;5056626;28;20025;-79
2021/04/25 07:12:04;;;;;;;6.20;2.67;;;;;;;;;;5055488;28;20013;-79
2021/04/25 07:14:29;;;;;;;8.30;2.50;;;;;;;;;;5056370;28;20025;-79
2021/04/25 07:16:54;;;;;;;6.07;2.78;;;;;;;;;;5056846;28;20036;-79
2021/04/25 07:19:19;;;;;;;11.50;3.22;;;;;;;;;;5056660;28;20025;-79
2021/04/25 07:21:44;;;;;;;7.20;2.80;;;;;;;;;;5056340;28;20155;-79
2021/04/25 07:24:10;;;;;;;13.38;2.58;;;;;;;;;;5056889;28;20039;-79
2021/04/25 07:26:35;;;;;;;6.50;2.63;;;;;;;;;;5056322;28;20021;-79
2021/04/25 07:29:00;;;;;;;7.95;2.78;;;;;;;;;;5056474;28;20021;-79
2021/04/25 07:31:25;;;;;;;8.50;2.65;;;;;;;;;;5054880;28;20020;-79
2021/04/25 07:33:51;;;;;;;9.82;3.42;;;;;;;;;;5056518;28;20021;-79
2021/04/25 07:36:16;;;;;;;8.63;2.97;;;;;;;;;;5056228;28;20461;-79
2021/04/25 07:38:41;;;;;;;10.55;2.90;;;;;;;;;;5056214;28;20027;-79
2021/04/25 07:41:07;;;;;;;7.03;2.67;;;;;;;;;;5056202;28;20384;-79
2021/04/25 07:43:32;;;;;;;9.45;2.92;;;;;;;;;;5051833;28;20022;-79
2021/04/25 07:45:57;;;;;;;9.15;2.95;;;;;;;;;;5045161;28;20476;-79
2021/04/25 07:48:23;;;;;;;7.03;2.42;;;;;;;;;;5055945;28;20017;-79
2021/04/25 07:50:48;;;;;;;11.38;2.78;;;;;;;;;;5054745;28;20017;-78
2021/04/25 07:53:15;;;;;;;11.93;2.92;;;;;;;;;;5055869;28;20432;-79
2021/04/25 07:55:40;;;;;;;8.68;2.20;;;;;;;;;;5055766;28;20070;-79
2021/04/25 07:58:05;;;;;;;11.23;2.83;;;;;;;;;;5054654;28;20013;-79
2021/04/25 08:00:31;;;;;;;8.25;2.85;;;;;;;;;;5056421;28;20274;-79
2021/04/25 08:02:56;;;;;;;5.57;2.33;;;;;;;;;;5055740;28;20017;-79
2021/04/25 08:05:21;;;;;;;9.52;2.95;;;;;;;;;;5055841;28;20029;-79
2021/04/25 08:07:47;;;;;;;6.85;2.88;;;;;;;;;;5055302;28;20024;-79
2021/04/25 08:10:12;;;;;;;6.47;2.90;;;;;;;;;;5055148;28;20482;-79
2021/04/25 08:12:37;;;;;;;9.65;2.80;;;;;;;;;;5055356;28;20016;-79
2021/04/25 08:15:04;;;;;;;6.85;2.95;;;;;;;;;;5054437;28;20019;-79
2021/04/25 08:17:29;;;;;;;10.70;3.38;;;;;;;;;;5055544;28;20468;-79
2021/04/25 08:19:54;;;;;;;6.75;2.65;;;;;;;;;;5054020;28;20074;-79
2021/04/25 08:22:19;;;;;;;10.15;3.00;;;;;;;;;;5054155;28;20028;-79
2021/04/25 08:24:45;;;;;;;8.57;2.67;;;;;;;;;;5055370;28;20020;-79
2021/04/25 08:27:10;;;;;;;10.15;2.92;;;;;;;;;;5054165;28;20112;-79
2021/04/25 08:29:35;;;;;;;10.68;2.80;;;;;;;;;;5053868;28;20033;-79
2021/04/25 08:32:01;;;;;;;8.57;2.90;;;;;;;;;;5053994;28;20468;-79
2021/04/25 08:34:26;;;;;;;8.15;3.92;;;;;;;;;;5055225;28;20424;-79
2021/04/25 08:36:51;;;;;;;12.52;3.08;;;;;;;;;;5051192;28;20036;-79
2021/04/25 08:39:16;;;;;;;7.22;2.92;;;;;;;;;;5045125;28;20098;-79
2021/04/25 08:41:41;;;;;;;9.75;3.63;;;;;;;;;;5053680;28;20024;-79
2021/04/25 08:44:07;;;;;;;9.00;3.30;;;;;;;;;;5055021;28;20461;-79
2021/04/25 08:46:33;;;;;;;7.68;2.72;;;;;;;;;;5054930;28;20017;-79
2021/04/25 08:48:58;;;;;;;9.73;2.50;;;;;;;;;;5053519;28;20020;-79
2021/04/25 08:51:23;;;;;;;9.25;3.05;;;;;;;;;;5070501;28;20028;-79
2021/04/25 08:53:49;;;;;;;10.23;3.53;;;;;;;;;;5070204;28;20113;-79
2021/04/25 08:56:14;;;;;;;4.50;2.13;;;;;;;;;;5054649;28;20025;-79
2021/04/25 08:58:40;;;;;;;7.60;3.58;;;;;;;;;;5054810;28;20066;-79
2021/04/25 09:01:05;;;;;;;7.15;2.95;;;;;;;;;;5054616;28;20477;-79
2021/04/25 09:03:31;;;;;;;9.32;3.58;;;;;;;;;;5054693;28;20017;-79
2021/04/25 09:05:59;;;;;;;12.63;4.35;;;;;;;;;;5054401;28;20020;-79
2021/04/25 09:08:44;;;;;;;7.20;2.70;;;;;;;;;;5054614;28;20032;-79
2021/04/25 09:11:24;;;;;;;11.73;3.20;;;;;;;;;;5057391;28;20044;-78
2021/04/25 09:14:08;;;;;;;12.85;3.42;;;;;;;;;;5053165;28;20119;-79
2021/04/25 09:16:33;;;;;;;11.75;3.22;;;;;;;;;;5069681;28;20013;-79
2021/04/25 09:18:59;;;;;;;7.38;2.33;;;;;;;;;;5053137;28;20021;-79
2021/04/25 09:21:26;;;;;;;7.88;3.67;;;;;;;;;;5052666;28;20029;-79
2021/04/25 09:23:51;;;;;;;8.32;3.25;;;;;;;;;;5054272;28;20031;-79
2021/04/25 09:26:16;;;;;;;14.52;4.05;;;;;;;;;;5054046;28;20540;-79
2021/04/25 09:28:57;;;;;;;6.28;3.10;;;;;;;;;;5054148;28;20048;-79
2021/04/25 09:31:23;;;;;;;9.95;3.20;;;;;;;;;;5053928;28;20107;-79
2021/04/25 09:33:49;;;;;;;8.38;2.78;;;;;;;;;;5052854;28;20452;-79
2021/04/25 09:36:17;;;;;;;13.63;3.63;;;;;;;;;;5052740;28;20047;-79
2021/04/25 09:38:42;;;;;;;8.55;3.40;;;;;;;;;;5053889;28;20452;-79
2021/04/25 09:41:07;;;;;;;7.20;3.10;;;;;;;;;;5052642;28;20052;-79
2021/04/25 09:43:39;;;;;;;9.02;3.55;;;;;;;;;;5053803;28;20024;-79
2021/04/25 09:46:05;;;;;;;10.75;2.83;;;;;;;;;;5053894;28;20112;-79
2021/04/25 09:48:34;;;;;;;9.23;3.22;;;;;;;;;;5053897;28;20095;-79
2021/04/25 09:51:08;;;;;;;8.40;2.92;;;;;;;;;;5053792;28;20033;-79
2021/04/25 09:53:34;;;;;;;8.93;3.08;;;;;;;;;;5053648;28;20013;-79
2021/04/25 09:55:59;;;;;;;8.50;2.78;;;;;;;;;;5053538;28;20020;-79
2021/04/25 09:58:26;;;;;;;5.35;1.77;;;;;;;;;;5053703;28;20020;-79
2021/04/25 10:00:52;;;;;;;8.70;3.28;;;;;;;;;;5052200;28;20388;-79
2021/04/25 10:03:22;;;;;;;9.48;3.30;;;;;;;;;;5053602;28;20019;-79
2021/04/25 10:05:57;;;;;;;7.00;2.97;;;;;;;;;;5053499;28;20464;-79
2021/04/25 10:08:26;;;;;;;8.63;2.88;;;;;;;;;;5053348;28;20108;-79
2021/04/25 10:10:51;;;;;;;12.15;3.60;;;;;;;;;;5053535;28;20416;-79
2021/04/25 10:13:17;;;;;;;8.40;2.70;;;;;;;;;;5053252;28;20025;-79
2021/04/25 10:15:42;;;;;;;12.52;2.95;;;;;;;;;;5053438;28;20013;-79
2021/04/25 10:18:07;;;;;;;8.77;2.78;;;;;;;;;;5053380;28;20016;-79
2021/04/25 10:20:32;;;;;;;5.72;2.58;;;;;;;;;;5052172;28;20016;-79
2021/04/25 10:22:58;;;;;;;7.97;2.80;;;;;;;;;;5051769;28;20021;-79
2021/04/25 10:25:33;;;;;;;7.90;2.80;;;;;;;;;;5040887;28;20024;-79
2021/04/25 10:28:01;;;;;;;4.50;2.55;;;;;;;;;;5053236;28;20380;-79
2021/04/25 10:30:46;;;;;;;12.40;3.08;;;;;;;;;;5053262;28;20461;-79
2021/04/25 10:33:11;;;;;;;9.90;3.58;;;;;;;;;;5051509;28;20491;-79
2021/04/25 10:35:36;;;;;;;7.30;3.60;;;;;;;;;;5053337;28;20009;-79
2021/04/25 10:38:03;;;;;;;7.40;2.58;;;;;;;;;;5053218;28;20024;-79
2021/04/25 10:40:47;;;;;;;8.30;2.90;;;;;;;;;;5039085;28;20045;-79
2021/04/25 10:43:13;;;;;;;8.32;2.97;;;;;;;;;;5053044;28;20404;-79
2021/04/25 10:45:55;;;;;;;11.50;2.30;;;;;;;;;;5052140;28;20035;-79
2021/04/25 10:48:21;;;;;;;12.27;3.88;;;;;;;;;;5052934;28;20021;-79
2021/04/25 10:50:47;;;;;;;9.23;2.70;;;;;;;;;;5051817;28;20040;-79
2021/04/25 10:53:17;;;;;;;5.95;2.83;;;;;;;;;;5052939;28;20380;-79
2021/04/25 10:55:42;;;;;;;6.78;3.40;;;;;;;;;;5052947;28;20029;-79
2021/04/25 10:58:07;;;;;;;7.45;3.20;;;;;;;;;;5051842;28;20028;-79
2021/04/25 11:00:44;;;;;;;7.57;3.45;;;;;;;;;;5053015;28;20017;-79
2021/04/25 11:03:21;;;;;;;6.97;2.97;;;;;;;;;;5051823;28;20048;-79
2021/04/25 11:05:47;;;;;;;9.18;3.28;;;;;;;;;;5052776;28;20020;-79
2021/04/25 11:08:12;;;;;;;6.90;2.70;;;;;;;;;;5052917;28;20096;-79
2021/04/25 11:10:50;;;;;;;9.13;2.92;;;;;;;;;;5052761;28;20196;-79
2021/04/25 11:13:34;;;;;;;7.00;3.10;;;;;;;;;;5051422;28;20023;-79
2021/04/25 11:16:03;;;;;;;13.27;3.60;;;;;;;;;;5052648;28;20343;-79
2021/04/25 11:18:43;;;;;;;9.55;3.65;;;;;;;;;;5052882;28;20017;-79
2021/04/25 11:23:56;;;;;;;10.98;3.25;;;;;;;;;;5053120;28;20036;-79
2021/04/25 11:26:33;;;;;;;9.75;3.53;;;;;;;;;;5051282;28;20041;-79
2021/04/25 11:29:00;;;;;;;8.07;3.50;;;;;;;;;;5052917;28;20075;-79
2021/04/25 11:31:48;;;;;;;13.23;3.38;;;;;;;;;;5052575;28;20127;-79
2021/04/25 11:34:22;;;;;;;6.82;3.33;;;;;;;;;;5052644;28;20491;-79
2021/04/25 11:36:48;;;;;;;13.68;3.58;;;;;;;;;;5052559;28;20503;-79
2021/04/25 11:39:16;;;;;;;9.52;3.20;;;;;;;;;;5052753;28;20025;-79
2021/04/25 11:41:42;;;;;;;8.85;3.58;;;;;;;;;;5052504;28;20472;-79
2021/04/25 11:44:07;;;;;;;5.68;2.78;;;;;;;;;;5055590;28;20017;-79
2021/04/25 11:46:35;;;;;;;7.93;3.55;;;;;;;;;;5055086;28;20373;-79
2021/04/25 11:49:01;;;;;;;10.13;3.40;;;;;;;;;;5056075;28;20035;-79
2021/04/25 11:51:27;;;;;;;9.05;2.78;;;;;;;;;;5056144;28;20100;-79
2021/04/25 11:53:52;;;;;;;15.00;3.45;;;;;;;;;;5054586;28;20052;-79
2021/04/25 11:56:29;;;;;;;12.95;3.40;;;;;;;;;;5054899;28;20530;-79
2021/04/25 11:59:07;;;;;;;9.88;3.40;;;;;;;;;;5071427;28;20041;-79
2021/04/25 12:01:33;;;;;;;16.95;3.83;;;;;;;;;;5054654;28;20499;-79
2021/04/25 12:03:58;;;;;;;25.08;3.97;;;;;;;;;;5056041;28;20025;-79
2021/04/25 12:06:24;;;;;;;11.18;3.35;;;;;;;;;;5055671;28;20052;-79
2021/04/25 12:08:50;;;;;;;11.20;3.55;;;;;;;;;;5054565;28;20079;-79
2021/04/25 12:11:25;;;;;;;16.40;3.72;;;;;;;;;;5055600;28;20024;-79
2021/04/25 12:13:51;;;;;;;9.13;3.53;;;;;;;;;;5054449;28;20040;-79
2021/04/25 12:16:20;;;;;;;21.63;4.30;;;;;;;;;;5055514;28;20013;-79
2021/04/25 12:18:46;;;;;;;21.00;3.53;;;;;;;;;;5055831;28;20353;-79
2021/04/25 12:21:15;;;;;;;10.82;2.83;;;;;;;;;;5054214;28;20051;-79
2021/04/25 12:23:45;;;;;;;22.63;3.67;;;;;;;;;;5055603;28;20115;-79
2021/04/25 12:26:12;;;;;;;10.55;2.58;;;;;;;;;;5055506;28;20361;-79
2021/04/25 12:28:38;;;;;;;9.65;3.40;;;;;;;;;;5055515;28;20017;-79
2021/04/25 12:31:04;;;;;;;17.08;3.90;;;;;;;;;;5055468;28;20346;-79
2021/04/25 12:33:36;;;;;;;10.18;3.70;;;;;;;;;;5055279;28;20017;-79
2021/04/25 12:36:04;;;;;;;12.80;3.95;;;;;;;;;;5055366;28;20030;-79
2021/04/25 12:38:29;;;;;;;11.45;3.80;;;;;;;;;;5053899;28;20024;-79
2021/04/25 12:40:55;;;;;;;7.53;3.00;;;;;;;;;;5055346;28;20017;-79
2021/04/25 12:43:20;;;;;;;44.35;3.60;;;;;;;;;;5055141;28;20456;-79
2021/04/25 12:45:45;;;;;;;12.85;3.03;;;;;;;;;;5053952;28;20020;-79
2021/04/25 12:48:31;;;;;;;12.15;3.28;;;;;;;;;;5055104;28;20024;-79
2021/04/25 12:51:01;;;;;;;10.88;3.30;;;;;;;;;;5055308;28;20099;-79
2021/04/25 12:53:27;;;;;;;7.35;2.88;;;;;;;;;;5053621;28;20079;-79
2021/04/25 12:55:52;;;;;;;14.55;3.60;;;;;;;;;;5052976;28;20470;-79
2021/04/25 12:58:17;;;;;;;12.75;3.08;;;;;;;;;;5053665;28;20099;-79
2021/04/25 13:00:42;;;;;;;11.93;2.95;;;;;;;;;;5053425;28;20059;-79
2021/04/25 13:03:26;;;;;;;4.78;2.40;;;;;;;;;;5053555;28;20370;-79
2021/04/25 13:05:55;;;;;;;12.43;3.10;;;;;;;;;;5053829;28;20048;-79
2021/04/25 13:08:32;;;;;;;17.95;3.15;;;;;;;;;;5041972;28;20074;-80
2021/04/25 13:10:57;;;;;;;8.88;2.97;;;;;;;;;;5054419;28;20373;-79
2021/04/25 13:13:22;;;;;;;6.68;2.53;;;;;;;;;;5053213;28;20025;-79
2021/04/25 13:15:47;;;;;;;12.43;3.00;;;;;;;;;;5054607;28;20028;-79
2021/04/25 13:18:14;;;;;;;8.73;3.10;;;;;;;;;;5054242;28;20627;-80
2021/04/25 13:20:39;;;;;;;8.80;3.10;;;;;;;;;;5054394;28;20032;-80
2021/04/25 13:23:06;;;;;;;11.13;3.13;;;;;;;;;;5040281;28;20377;-79
2021/04/25 13:25:45;;;;;;;7.80;3.30;;;;;;;;;;5054591;28;20032;-79
2021/04/25 13:28:11;;;;;;;10.57;2.50;;;;;;;;;;5054124;28;20029;-79
2021/04/25 13:30:36;;;;;;;13.25;3.20;;;;;;;;;;5048072;28;20120;-79
2021/04/25 13:33:02;;;;;;;12.73;3.92;;;;;;;;;;5054074;28;20446;-79
2021/04/25 13:35:27;;;;;;;10.35;2.92;;;;;;;;;;5054175;28;20028;-79
2021/04/25 13:37:54;;;;;;;13.20;3.55;;;;;;;;;;5054152;28;20017;-79
2021/04/25 13:40:19;;;;;;;7.65;2.97;;;;;;;;;;5054001;28;20017;-80
2021/04/25 13:42:44;;;;;;;6.68;3.20;;;;;;;;;;5054190;28;20075;-79
2021/04/25 13:45:10;;;;;;;15.82;3.42;;;;;;;;;;5053809;28;20384;-79
2021/04/25 13:47:35;;;;;;;11.18;2.80;;;;;;;;;;5053992;28;20052;-79
2021/04/25 13:50:01;;;;;;;8.35;2.63;;;;;;;;;;5052452;28;20021;-79
2021/04/25 13:52:26;;;;;;;5.85;2.83;;;;;;;;;;5052578;28;20016;-79
2021/04/25 13:54:51;;;;;;;7.95;2.70;;;;;;;;;;5053964;28;20017;-79
2021/04/25 13:57:19;;;;;;;10.00;3.00;;;;;;;;;;5053710;28;20009;-79
2021/04/25 13:59:44;;;;;;;4.88;2.50;;;;;;;;;;5052467;28;20036;-80
2021/04/25 14:02:09;;;;;;;14.82;2.83;;;;;;;;;;5053761;28;20415;-79
2021/04/25 14:04:34;;;;;;;10.50;2.75;;;;;;;;;;5053852;28;20059;-79
2021/04/25 14:07:00;;;;;;;16.08;2.53;;;;;;;;;;5051625;28;20025;-79
2021/04/25 14:09:25;;;;;;;9.00;2.67;;;;;;;;;;5053392;28;20465;-79
2021/04/25 14:11:50;;;;;;;9.02;3.00;;;;;;;;;;5053620;28;20020;-79
2021/04/25 14:14:15;;;;;;;8.55;2.67;;;;;;;;;;5052455;28;20056;-79
2021/04/25 14:16:40;;;;;;;14.73;2.70;;;;;;;;;;5047643;28;20009;-79
2021/04/25 14:19:06;;;;;;;6.63;2.40;;;;;;;;;;5045338;28;20025;-79
2021/04/25 14:21:31;;;;;;;6.05;2.40;;;;;;;;;;5053801;28;20167;-79
2021/04/25 14:23:56;;;;;;;11.93;2.60;;;;;;;;;;5053365;28;20028;-79
2021/04/25 14:26:22;;;;;;;13.70;2.72;;;;;;;;;;5053220;28;20048;-79
2021/04/25 14:28:47;;;;;;;9.73;2.53;;;;;;;;;;5053323;28;20025;-80
2021/04/25 14:31:13;;;;;;;5.45;2.50;;;;;;;;;;5053320;28;20070;-79
2021/04/25 14:33:38;;;;;;;8.20;3.08;;;;;;;;;;5051827;28;20020;-80